createdAt,value
2022-10-03T00:02:54.900Z,10.53
2022-10-03T00:08:32.410Z,10.70
2022-10-03T00:13:42.795Z,9.63
2022-10-03T00:19:10.729Z,9.47
2022-10-03T00:24:54.792Z,9.97
2022-10-03T00:30:22.217Z,9.40
2022-10-03T00:36:00.520Z,9.60
2022-10-03T00:41:39.534Z,9.83
2022-10-03T00:46:58.798Z,10.37
2022-10-03T00:52:16.479Z,12.13
2022-10-03T00:57:54.839Z,11.13
2022-10-03T01:03:08.240Z,10.57
2022-10-03T01:08:37.155Z,9.83
2022-10-03T01:13:50.485Z,10.60
2022-10-03T01:19:12.722Z,9.00
2022-10-03T01:24:38.262Z,10.53
2022-10-03T01:30:16.261Z,9.67
2022-10-03T01:35:29.719Z,10.37
2022-10-03T01:40:36.562Z,9.03
2022-10-03T01:46:03.972Z,9.47
2022-10-03T01:51:16.049Z,9.60
2022-10-03T01:56:37.042Z,10.27
2022-10-03T02:01:49.686Z,9.67
2022-10-03T02:07:19.580Z,9.27
2022-10-03T02:12:54.633Z,9.77
2022-10-03T02:18:15.202Z,9.30
2022-10-03T02:23:32.121Z,10.70
2022-10-03T02:28:56.399Z,9.87
2022-10-03T02:34:28.933Z,9.93
2022-10-03T02:39:29.934Z,11.20
2022-10-03T02:44:43.235Z,11.47
2022-10-03T02:50:20.301Z,9.40
2022-10-03T02:55:50.147Z,10.70
2022-10-03T03:01:22.244Z,9.67
2022-10-03T03:06:54.030Z,10.00
2022-10-03T03:12:23.871Z,11.67
2022-10-03T03:17:43.234Z,10.23
2022-10-03T03:22:53.493Z,9.73
2022-10-03T03:28:11.289Z,10.17
2022-10-03T03:33:38.399Z,10.27
2022-10-03T03:39:04.987Z,11.40
2022-10-03T03:44:38.842Z,10.67
2022-10-03T03:50:07.170Z,9.80
2022-10-03T03:55:14.529Z,8.80
2022-10-03T04:00:20.421Z,8.73
2022-10-03T04:05:49.529Z,9.70
2022-10-03T04:10:59.716Z,9.43
2022-10-03T04:16:45.719Z,10.47
2022-10-03T04:22:04.985Z,10.47
2022-10-03T04:27:45.191Z,9.40
2022-10-03T04:33:22.566Z,10.50
2022-10-03T04:38:43.710Z,9.37
2022-10-03T04:44:09.366Z,9.43
2022-10-03T04:49:22.571Z,9.50
2022-10-03T04:54:47.559Z,10.17
2022-10-03T05:00:24.559Z,9.57
2022-10-03T05:05:29.354Z,9.37
2022-10-03T05:10:56.542Z,10.30
2022-10-03T05:16:34.410Z,9.80
2022-10-03T05:21:48.230Z,10.07
2022-10-03T05:27:17.802Z,8.93
2022-10-03T05:32:30.005Z,10.10
2022-10-03T05:38:00.514Z,9.57
2022-10-03T05:43:35.445Z,9.70
2022-10-03T05:49:10.723Z,10.33
2022-10-03T05:54:42.324Z,10.93
2022-10-03T06:00:09.432Z,10.20
2022-10-03T06:05:38.362Z,9.90
2022-10-03T06:10:50.173Z,10.07
2022-10-03T06:16:25.420Z,10.67
2022-10-03T06:21:41.311Z,10.57
2022-10-03T06:27:20.088Z,10.93
2022-10-03T06:32:46.295Z,11.90
2022-10-03T06:38:29.289Z,11.87
2022-10-03T06:44:05.969Z,13.03
2022-10-03T06:49:33.627Z,13.60
2022-10-03T06:54:44.009Z,14.77
2022-10-03T06:59:51.533Z,15.13
2022-10-03T07:05:04.643Z,15.47
2022-10-03T07:10:32.138Z,16.23
2022-10-03T07:22:00.520Z,18.43
2022-10-03T07:27:19.100Z,17.80
2022-10-03T07:32:54.401Z,16.07
2022-10-03T07:38:39.206Z,16.00
2022-10-03T07:44:28.886Z,16.43
2022-10-03T07:49:53.905Z,16.23
2022-10-03T07:55:19.750Z,16.63
2022-10-03T08:00:25.198Z,15.13
2022-10-03T08:05:50.052Z,16.67
2022-10-03T08:11:14.051Z,17.80
2022-10-03T08:16:42.687Z,18.03
2022-10-03T08:21:52.801Z,18.77
2022-10-03T08:27:12.797Z,21.27
2022-10-03T08:32:35.234Z,18.95
2022-10-03T08:38:07.341Z,13.63
2022-10-03T08:43:50.493Z,12.85
2022-10-03T08:48:57.549Z,9.77
2022-10-03T08:54:23.886Z,8.95
2022-10-03T08:59:59.135Z,7.65
2022-10-03T09:05:19.335Z,7.45
2022-10-03T09:11:02.672Z,5.60
2022-10-03T09:16:47.705Z,5.32
2022-10-03T09:22:00.798Z,5.72
2022-10-03T09:27:30.866Z,5.85
2022-10-03T09:32:44.374Z,4.63
2022-10-03T09:37:51.614Z,4.80
2022-10-03T09:43:44.029Z,4.50
2022-10-03T09:49:03.305Z,4.10
2022-10-03T09:54:32.348Z,3.88
2022-10-03T10:00:10.426Z,2.90
2022-10-03T10:05:33.310Z,2.53
2022-10-03T10:11:08.365Z,3.17
2022-10-03T10:16:24.369Z,2.88
2022-10-03T10:21:49.825Z,3.50
2022-10-03T10:27:20.010Z,3.45
2022-10-03T10:33:15.841Z,3.85
2022-10-03T10:38:42.858Z,2.42
2022-10-03T10:44:04.174Z,3.17
2022-10-03T10:49:37.618Z,3.65
2022-10-03T10:55:19.704Z,2.97
2022-10-03T11:00:52.319Z,2.65
2022-10-03T11:06:31.217Z,2.58
2022-10-03T11:12:10.846Z,2.42
2022-10-03T11:17:57.987Z,2.65
2022-10-03T11:23:02.472Z,2.45
2022-10-03T11:28:37.518Z,2.10
2022-10-03T11:34:22.325Z,3.08
2022-10-03T11:39:34.154Z,2.15
2022-10-03T11:44:51.205Z,2.28
2022-10-03T11:50:10.955Z,2.60
2022-10-03T11:55:33.194Z,2.28
2022-10-03T12:00:37.579Z,2.25
2022-10-03T12:06:23.400Z,2.53
2022-10-03T12:11:43.400Z,2.50
2022-10-03T12:17:17.562Z,2.28
2022-10-03T12:22:51.265Z,2.03
2022-10-03T12:27:58.775Z,1.90
2022-10-03T12:33:32.185Z,1.67
2022-10-03T12:38:57.190Z,1.95
2022-10-03T12:44:18.847Z,1.67
2022-10-03T12:49:47.772Z,1.63
2022-10-03T12:55:14.062Z,1.75
2022-10-03T13:00:23.501Z,1.88
2022-10-03T13:05:41.394Z,1.77
2022-10-03T13:10:50.098Z,2.10
2022-10-03T13:16:39.237Z,2.45
2022-10-03T13:22:06.429Z,1.85
2022-10-03T13:27:22.838Z,2.45
2022-10-03T13:32:47.140Z,1.60
2022-10-03T13:38:18.399Z,1.42
2022-10-03T13:43:25.618Z,1.58
2022-10-03T13:48:28.293Z,1.20
2022-10-03T13:53:50.138Z,1.33
2022-10-03T13:59:26.794Z,1.73
2022-10-03T14:04:46.155Z,1.58
2022-10-03T14:10:15.672Z,1.75
2022-10-03T14:15:38.742Z,1.27
2022-10-03T14:20:52.275Z,1.63
2022-10-03T14:26:12.318Z,2.33
2022-10-03T14:31:36.211Z,2.50
2022-10-03T14:36:43.422Z,3.65
2022-10-03T14:42:00.173Z,1.92
2022-10-03T14:47:08.938Z,2.10
2022-10-03T14:52:21.059Z,1.85
2022-10-03T14:57:25.382Z,2.00
2022-10-03T15:02:38.170Z,2.10
2022-10-03T15:07:42.151Z,2.75
2022-10-03T15:12:48.091Z,2.35
2022-10-03T15:17:52.698Z,3.17
2022-10-03T15:22:57.688Z,3.15
2022-10-03T15:28:14.445Z,2.75
2022-10-03T15:33:18.838Z,2.60
2022-10-03T15:38:26.810Z,3.35
2022-10-03T15:43:33.687Z,3.40
2022-10-03T15:48:35.203Z,2.83
2022-10-03T15:53:37.607Z,2.90
2022-10-03T15:58:46.330Z,3.20
2022-10-03T16:03:54.982Z,2.72
2022-10-03T16:09:01.121Z,3.50
2022-10-03T16:14:08.530Z,2.97
2022-10-03T16:19:18.898Z,3.13
2022-10-03T16:24:35.436Z,3.22
2022-10-03T16:29:42.505Z,3.00
2022-10-03T16:34:45.714Z,3.05
2022-10-03T16:40:05.406Z,3.10
2022-10-03T16:45:18.126Z,3.30
2022-10-03T16:50:24.631Z,3.00
2022-10-03T16:55:33.454Z,3.72
2022-10-03T17:00:56.294Z,2.88
2022-10-03T17:06:07.741Z,3.80
2022-10-03T17:11:18.953Z,3.27
2022-10-03T17:16:33.406Z,3.47
2022-10-03T17:21:39.834Z,3.30
2022-10-03T17:26:52.427Z,4.30
2022-10-03T17:32:08.601Z,4.03
2022-10-03T17:37:21.777Z,4.93
2022-10-03T17:42:35.227Z,5.30
2022-10-03T17:47:56.680Z,4.93
2022-10-03T17:52:59.932Z,5.07
2022-10-03T17:58:22.273Z,5.37
2022-10-03T18:03:47.486Z,5.97
2022-10-03T18:08:51.421Z,6.40
2022-10-03T18:14:15.875Z,5.50
2022-10-03T18:20:01.696Z,5.27
2022-10-03T18:25:40.895Z,7.07
2022-10-03T18:30:53.061Z,6.10
2022-10-03T18:35:55.780Z,15.77
2022-10-03T18:41:02.337Z,10.07
2022-10-03T18:46:18.553Z,11.53
2022-10-03T18:51:44.711Z,8.83
2022-10-03T18:56:58.603Z,7.90
2022-10-03T19:02:02.563Z,6.80
2022-10-03T19:07:16.482Z,7.20
2022-10-03T19:12:21.034Z,6.93
2022-10-03T19:17:31.130Z,9.90
2022-10-03T19:22:38.053Z,25.80
2022-10-03T19:27:46.609Z,10.00
2022-10-03T19:33:11.741Z,9.47
2022-10-03T19:38:17.574Z,12.53
2022-10-03T19:43:36.866Z,12.13
2022-10-03T19:49:01.925Z,11.23
2022-10-03T19:54:12.327Z,10.87
2022-10-03T19:59:16.933Z,9.27
2022-10-03T20:04:36.340Z,9.73
2022-10-03T20:09:59.498Z,9.80
2022-10-03T20:15:05.291Z,10.23
2022-10-03T20:20:15.473Z,10.93
2022-10-03T20:25:38.913Z,9.23
2022-10-03T20:30:45.868Z,9.17
2022-10-03T20:35:50.007Z,10.23
2022-10-03T20:41:15.206Z,8.80
2022-10-03T20:46:21.438Z,8.60
2022-10-03T20:51:23.167Z,8.17
2022-10-03T20:56:35.235Z,8.40
2022-10-03T21:01:37.887Z,8.73
2022-10-03T21:07:16.975Z,8.63
2022-10-03T21:12:23.954Z,9.03
2022-10-03T21:17:26.493Z,11.03
2022-10-03T21:22:29.103Z,10.67
2022-10-03T21:27:32.846Z,10.43
2022-10-03T21:32:57.922Z,11.10
2022-10-03T21:38:17.657Z,10.13
2022-10-03T21:43:42.866Z,10.90
2022-10-03T21:49:01.610Z,12.40
2022-10-03T21:54:36.255Z,13.00
2022-10-03T22:00:13.011Z,13.07
2022-10-03T22:05:40.479Z,12.47
2022-10-03T22:10:58.830Z,13.50
2022-10-03T22:16:12.064Z,13.60
2022-10-03T22:21:25.351Z,14.93
2022-10-03T22:26:56.153Z,14.90
2022-10-03T22:32:34.203Z,13.40
2022-10-03T22:37:36.743Z,11.13
2022-10-03T22:42:45.398Z,11.27
2022-10-03T22:47:54.774Z,8.40
2022-10-03T22:52:58.363Z,8.70
2022-10-03T22:58:01.486Z,8.60
2022-10-03T23:03:08.719Z,8.60
2022-10-03T23:08:23.915Z,8.03
2022-10-03T23:13:38.597Z,8.63
2022-10-03T23:19:01.524Z,7.70
2022-10-03T23:24:12.427Z,7.30
2022-10-03T23:29:16.565Z,7.83
2022-10-03T23:34:39.230Z,7.13
2022-10-03T23:40:06.290Z,6.53
2022-10-03T23:45:10.321Z,7.47
2022-10-03T23:50:18.646Z,7.27
2022-10-03T23:55:23.810Z,7.50
